sensor_id;sensor_type;location;lat;lon;timestamp;P1;durP1;ratioP1;P2;durP2;ratioP2
29362;SDS011;16349;53.672;10.014;2024-03-08T00:01:53;17.23;;;11.03;;
29362;SDS011;16349;53.672;10.014;2024-03-08T00:04:20;17.57;;;11.30;;
29362;SDS011;16349;53.672;10.014;2024-03-08T00:06:48;14.90;;;9.67;;
29362;SDS011;16349;53.672;10.014;2024-03-08T00:09:16;15.87;;;10.83;;
29362;SDS011;16349;53.672;10.014;2024-03-08T00:11:42;20.03;;;10.67;;
29362;SDS011;16349;53.672;10.014;2024-03-08T00:14:23;23.67;;;11.03;;
29362;SDS011;16349;53.672;10.014;2024-03-08T00:16:50;18.73;;;10.83;;
29362;SDS011;16349;53.672;10.014;2024-03-08T00:19:17;19.23;;;10.67;;
29362;SDS011;16349;53.672;10.014;2024-03-08T00:21:44;14.57;;;10.10;;
29362;SDS011;16349;53.672;10.014;2024-03-08T00:24:12;18.33;;;10.90;;
29362;SDS011;16349;53.672;10.014;2024-03-08T00:26:39;18.70;;;11.10;;
29362;SDS011;16349;53.672;10.014;2024-03-08T00:29:07;16.90;;;10.63;;
29362;SDS011;16349;53.672;10.014;2024-03-08T00:31:33;16.43;;;11.20;;
29362;SDS011;16349;53.672;10.014;2024-03-08T00:34:00;16.87;;;10.77;;
29362;SDS011;16349;53.672;10.014;2024-03-08T00:36:27;18.07;;;10.83;;
29362;SDS011;16349;53.672;10.014;2024-03-08T00:38:55;19.00;;;10.60;;
29362;SDS011;16349;53.672;10.014;2024-03-08T00:41:23;18.20;;;9.77;;
29362;SDS011;16349;53.672;10.014;2024-03-08T00:43:51;17.73;;;10.03;;
29362;SDS011;16349;53.672;10.014;2024-03-08T00:46:18;15.37;;;9.83;;
29362;SDS011;16349;53.672;10.014;2024-03-08T00:48:45;16.20;;;10.20;;
29362;SDS011;16349;53.672;10.014;2024-03-08T00:51:12;17.67;;;10.27;;
29362;SDS011;16349;53.672;10.014;2024-03-08T00:53:40;19.23;;;11.03;;
29362;SDS011;16349;53.672;10.014;2024-03-08T00:56:08;17.10;;;10.37;;
29362;SDS011;16349;53.672;10.014;2024-03-08T00:58:37;17.03;;;10.13;;
29362;SDS011;16349;53.672;10.014;2024-03-08T01:01:04;15.57;;;10.33;;
29362;SDS011;16349;53.672;10.014;2024-03-08T01:03:31;19.17;;;10.13;;
29362;SDS011;16349;53.672;10.014;2024-03-08T01:05:59;17.97;;;10.90;;
29362;SDS011;16349;53.672;10.014;2024-03-08T01:08:27;16.13;;;10.50;;
29362;SDS011;16349;53.672;10.014;2024-03-08T01:10:53;14.67;;;9.77;;
29362;SDS011;16349;53.672;10.014;2024-03-08T01:13:20;18.03;;;11.00;;
29362;SDS011;16349;53.672;10.014;2024-03-08T01:15:48;15.27;;;9.67;;
29362;SDS011;16349;53.672;10.014;2024-03-08T01:18:15;15.50;;;9.70;;
29362;SDS011;16349;53.672;10.014;2024-03-08T01:20:42;17.67;;;10.67;;
29362;SDS011;16349;53.672;10.014;2024-03-08T01:23:09;16.13;;;10.07;;
29362;SDS011;16349;53.672;10.014;2024-03-08T01:25:36;13.87;;;9.47;;
29362;SDS011;16349;53.672;10.014;2024-03-08T01:28:03;19.53;;;10.27;;
29362;SDS011;16349;53.672;10.014;2024-03-08T01:30:30;19.07;;;10.63;;
29362;SDS011;16349;53.672;10.014;2024-03-08T01:33:00;17.47;;;11.00;;
29362;SDS011;16349;53.672;10.014;2024-03-08T01:35:27;14.60;;;9.43;;
29362;SDS011;16349;53.672;10.014;2024-03-08T01:37:54;17.63;;;10.80;;
29362;SDS011;16349;53.672;10.014;2024-03-08T01:40:21;17.17;;;10.70;;
29362;SDS011;16349;53.672;10.014;2024-03-08T01:42:48;18.13;;;9.83;;
29362;SDS011;16349;53.672;10.014;2024-03-08T01:45:15;18.47;;;10.90;;
29362;SDS011;16349;53.672;10.014;2024-03-08T01:47:42;17.13;;;10.63;;
29362;SDS011;16349;53.672;10.014;2024-03-08T01:50:10;18.13;;;10.50;;
29362;SDS011;16349;53.672;10.014;2024-03-08T01:52:37;15.77;;;10.03;;
29362;SDS011;16349;53.672;10.014;2024-03-08T01:55:05;16.50;;;10.60;;
29362;SDS011;16349;53.672;10.014;2024-03-08T01:57:33;16.63;;;10.53;;
29362;SDS011;16349;53.672;10.014;2024-03-08T02:00:01;17.50;;;9.90;;
29362;SDS011;16349;53.672;10.014;2024-03-08T02:02:30;17.83;;;11.20;;
29362;SDS011;16349;53.672;10.014;2024-03-08T02:05:00;22.20;;;10.10;;
29362;SDS011;16349;53.672;10.014;2024-03-08T02:07:28;18.83;;;10.90;;
29362;SDS011;16349;53.672;10.014;2024-03-08T02:09:55;17.93;;;9.97;;
29362;SDS011;16349;53.672;10.014;2024-03-08T02:12:21;17.73;;;9.93;;
29362;SDS011;16349;53.672;10.014;2024-03-08T02:14:48;19.10;;;11.40;;
29362;SDS011;16349;53.672;10.014;2024-03-08T02:17:15;17.07;;;10.77;;
29362;SDS011;16349;53.672;10.014;2024-03-08T02:19:42;16.73;;;10.33;;
29362;SDS011;16349;53.672;10.014;2024-03-08T02:22:10;18.97;;;10.83;;
29362;SDS011;16349;53.672;10.014;2024-03-08T02:24:37;18.07;;;10.80;;
29362;SDS011;16349;53.672;10.014;2024-03-08T02:27:05;18.57;;;10.70;;
29362;SDS011;16349;53.672;10.014;2024-03-08T02:29:31;15.80;;;10.47;;
29362;SDS011;16349;53.672;10.014;2024-03-08T02:32:00;17.87;;;10.93;;
29362;SDS011;16349;53.672;10.014;2024-03-08T02:34:28;21.10;;;11.77;;
29362;SDS011;16349;53.672;10.014;2024-03-08T02:36:56;21.70;;;11.03;;
29362;SDS011;16349;53.672;10.014;2024-03-08T02:39:24;15.57;;;10.87;;
29362;SDS011;16349;53.672;10.014;2024-03-08T02:41:52;17.57;;;10.90;;
29362;SDS011;16349;53.672;10.014;2024-03-08T02:44:19;16.77;;;10.77;;
29362;SDS011;16349;53.672;10.014;2024-03-08T02:46:46;17.97;;;10.27;;
29362;SDS011;16349;53.672;10.014;2024-03-08T02:49:13;20.40;;;11.63;;
29362;SDS011;16349;53.672;10.014;2024-03-08T02:51:41;19.00;;;11.30;;
29362;SDS011;16349;53.672;10.014;2024-03-08T02:54:08;21.70;;;11.27;;
29362;SDS011;16349;53.672;10.014;2024-03-08T02:56:36;19.43;;;10.97;;
29362;SDS011;16349;53.672;10.014;2024-03-08T02:59:03;17.17;;;10.07;;
29362;SDS011;16349;53.672;10.014;2024-03-08T03:01:30;16.43;;;10.80;;
29362;SDS011;16349;53.672;10.014;2024-03-08T03:03:57;16.03;;;10.63;;
29362;SDS011;16349;53.672;10.014;2024-03-08T03:06:24;18.80;;;10.30;;
29362;SDS011;16349;53.672;10.014;2024-03-08T03:08:51;19.03;;;11.13;;
29362;SDS011;16349;53.672;10.014;2024-03-08T03:11:18;21.77;;;11.57;;
29362;SDS011;16349;53.672;10.014;2024-03-08T03:13:46;21.40;;;11.47;;
29362;SDS011;16349;53.672;10.014;2024-03-08T03:16:16;15.00;;;9.97;;
29362;SDS011;16349;53.672;10.014;2024-03-08T03:18:44;20.90;;;10.97;;
29362;SDS011;16349;53.672;10.014;2024-03-08T03:21:11;16.07;;;10.27;;
29362;SDS011;16349;53.672;10.014;2024-03-08T03:23:39;15.73;;;10.60;;
29362;SDS011;16349;53.672;10.014;2024-03-08T03:26:07;18.03;;;11.50;;
29362;SDS011;16349;53.672;10.014;2024-03-08T03:28:36;18.20;;;11.07;;
29362;SDS011;16349;53.672;10.014;2024-03-08T03:31:05;17.77;;;10.23;;
29362;SDS011;16349;53.672;10.014;2024-03-08T03:33:32;19.33;;;10.80;;
29362;SDS011;16349;53.672;10.014;2024-03-08T03:36:01;17.43;;;10.10;;
29362;SDS011;16349;53.672;10.014;2024-03-08T03:38:30;16.97;;;10.93;;
29362;SDS011;16349;53.672;10.014;2024-03-08T03:40:57;17.00;;;10.30;;
29362;SDS011;16349;53.672;10.014;2024-03-08T03:43:29;15.93;;;10.30;;
29362;SDS011;16349;53.672;10.014;2024-03-08T03:45:56;16.77;;;10.67;;
29362;SDS011;16349;53.672;10.014;2024-03-08T03:48:24;17.30;;;10.83;;
29362;SDS011;16349;53.672;10.014;2024-03-08T03:50:51;20.23;;;11.60;;
29362;SDS011;16349;53.672;10.014;2024-03-08T03:53:21;17.27;;;10.97;;
29362;SDS011;16349;53.672;10.014;2024-03-08T03:55:48;17.97;;;9.77;;
29362;SDS011;16349;53.672;10.014;2024-03-08T03:58:15;20.10;;;10.90;;
29362;SDS011;16349;53.672;10.014;2024-03-08T04:00:47;19.17;;;10.97;;
29362;SDS011;16349;53.672;10.014;2024-03-08T04:03:14;18.57;;;9.73;;
29362;SDS011;16349;53.672;10.014;2024-03-08T04:05:43;18.07;;;11.10;;
29362;SDS011;16349;53.672;10.014;2024-03-08T04:08:10;21.27;;;10.83;;
29362;SDS011;16349;53.672;10.014;2024-03-08T04:10:37;18.53;;;10.33;;
29362;SDS011;16349;53.672;10.014;2024-03-08T04:13:03;17.47;;;9.97;;
29362;SDS011;16349;53.672;10.014;2024-03-08T04:15:30;20.60;;;11.33;;
29362;SDS011;16349;53.672;10.014;2024-03-08T04:17:57;18.87;;;10.37;;
29362;SDS011;16349;53.672;10.014;2024-03-08T04:20:25;20.50;;;11.10;;
29362;SDS011;16349;53.672;10.014;2024-03-08T04:22:53;14.90;;;10.27;;
29362;SDS011;16349;53.672;10.014;2024-03-08T04:25:21;18.43;;;10.63;;
29362;SDS011;16349;53.672;10.014;2024-03-08T04:27:48;16.43;;;9.90;;
29362;SDS011;16349;53.672;10.014;2024-03-08T04:30:14;21.17;;;10.30;;
29362;SDS011;16349;53.672;10.014;2024-03-08T04:32:41;20.27;;;11.43;;
29362;SDS011;16349;53.672;10.014;2024-03-08T04:35:08;21.73;;;11.33;;
29362;SDS011;16349;53.672;10.014;2024-03-08T04:37:37;20.13;;;10.07;;
29362;SDS011;16349;53.672;10.014;2024-03-08T04:40:06;17.60;;;9.83;;
29362;SDS011;16349;53.672;10.014;2024-03-08T04:42:33;15.60;;;9.67;;
29362;SDS011;16349;53.672;10.014;2024-03-08T04:45:03;18.43;;;9.93;;
29362;SDS011;16349;53.672;10.014;2024-03-08T04:47:31;18.37;;;11.00;;
29362;SDS011;16349;53.672;10.014;2024-03-08T04:49:57;19.27;;;10.77;;
29362;SDS011;16349;53.672;10.014;2024-03-08T04:52:24;15.97;;;9.70;;
29362;SDS011;16349;53.672;10.014;2024-03-08T04:54:52;19.57;;;11.07;;
29362;SDS011;16349;53.672;10.014;2024-03-08T04:57:20;19.10;;;11.57;;
29362;SDS011;16349;53.672;10.014;2024-03-08T04:59:47;16.20;;;10.87;;
29362;SDS011;16349;53.672;10.014;2024-03-08T05:02:14;16.00;;;10.33;;
29362;SDS011;16349;53.672;10.014;2024-03-08T05:04:41;19.70;;;10.63;;
29362;SDS011;16349;53.672;10.014;2024-03-08T05:07:08;19.23;;;10.83;;
29362;SDS011;16349;53.672;10.014;2024-03-08T05:09:35;18.00;;;11.13;;
29362;SDS011;16349;53.672;10.014;2024-03-08T05:12:02;19.13;;;10.83;;
29362;SDS011;16349;53.672;10.014;2024-03-08T05:14:31;21.03;;;11.60;;
29362;SDS011;16349;53.672;10.014;2024-03-08T05:16:59;19.00;;;11.10;;
29362;SDS011;16349;53.672;10.014;2024-03-08T05:19:27;19.57;;;11.03;;
29362;SDS011;16349;53.672;10.014;2024-03-08T05:21:55;19.37;;;10.97;;
29362;SDS011;16349;53.672;10.014;2024-03-08T05:24:22;19.83;;;11.07;;
29362;SDS011;16349;53.672;10.014;2024-03-08T05:26:48;22.43;;;11.17;;
29362;SDS011;16349;53.672;10.014;2024-03-08T05:29:15;22.43;;;10.37;;
29362;SDS011;16349;53.672;10.014;2024-03-08T05:31:47;22.73;;;11.87;;
29362;SDS011;16349;53.672;10.014;2024-03-08T05:34:14;23.30;;;11.90;;
29362;SDS011;16349;53.672;10.014;2024-03-08T05:36:41;22.17;;;11.63;;
29362;SDS011;16349;53.672;10.014;2024-03-08T05:39:09;22.70;;;13.07;;
29362;SDS011;16349;53.672;10.014;2024-03-08T05:41:37;19.93;;;11.37;;
29362;SDS011;16349;53.672;10.014;2024-03-08T05:44:04;22.53;;;11.67;;
29362;SDS011;16349;53.672;10.014;2024-03-08T05:46:31;26.87;;;12.00;;
29362;SDS011;16349;53.672;10.014;2024-03-08T05:49:00;22.93;;;11.93;;
29362;SDS011;16349;53.672;10.014;2024-03-08T05:51:30;20.90;;;13.00;;
29362;SDS011;16349;53.672;10.014;2024-03-08T05:53:58;23.30;;;12.97;;
29362;SDS011;16349;53.672;10.014;2024-03-08T05:56:26;25.13;;;12.50;;
29362;SDS011;16349;53.672;10.014;2024-03-08T05:58:54;22.00;;;11.67;;
29362;SDS011;16349;53.672;10.014;2024-03-08T06:01:22;21.73;;;12.10;;
29362;SDS011;16349;53.672;10.014;2024-03-08T06:03:48;21.53;;;12.10;;
29362;SDS011;16349;53.672;10.014;2024-03-08T06:06:16;24.57;;;12.83;;
29362;SDS011;16349;53.672;10.014;2024-03-08T06:08:44;26.10;;;13.10;;
29362;SDS011;16349;53.672;10.014;2024-03-08T06:11:12;27.67;;;13.60;;
29362;SDS011;16349;53.672;10.014;2024-03-08T06:13:40;26.03;;;12.80;;
29362;SDS011;16349;53.672;10.014;2024-03-08T06:16:06;25.90;;;13.30;;
29362;SDS011;16349;53.672;10.014;2024-03-08T06:18:33;24.50;;;13.03;;
29362;SDS011;16349;53.672;10.014;2024-03-08T06:21:01;24.13;;;12.97;;
29362;SDS011;16349;53.672;10.014;2024-03-08T06:23:31;23.00;;;12.10;;
29362;SDS011;16349;53.672;10.014;2024-03-08T06:25:58;22.17;;;12.10;;
29362;SDS011;16349;53.672;10.014;2024-03-08T06:28:26;28.57;;;13.47;;
29362;SDS011;16349;53.672;10.014;2024-03-08T06:30:52;24.80;;;14.03;;
29362;SDS011;16349;53.672;10.014;2024-03-08T06:33:19;24.13;;;13.03;;
29362;SDS011;16349;53.672;10.014;2024-03-08T06:35:46;22.27;;;12.63;;
29362;SDS011;16349;53.672;10.014;2024-03-08T06:38:13;23.43;;;13.23;;
29362;SDS011;16349;53.672;10.014;2024-03-08T06:40:43;23.60;;;12.60;;
29362;SDS011;16349;53.672;10.014;2024-03-08T06:43:12;23.47;;;12.93;;
29362;SDS011;16349;53.672;10.014;2024-03-08T06:45:41;25.33;;;13.67;;
29362;SDS011;16349;53.672;10.014;2024-03-08T06:48:13;23.93;;;13.07;;
29362;SDS011;16349;53.672;10.014;2024-03-08T06:50:40;22.60;;;12.53;;
29362;SDS011;16349;53.672;10.014;2024-03-08T06:53:07;23.43;;;13.13;;
29362;SDS011;16349;53.672;10.014;2024-03-08T06:55:34;22.57;;;13.23;;
29362;SDS011;16349;53.672;10.014;2024-03-08T06:58:02;25.27;;;13.57;;
29362;SDS011;16349;53.672;10.014;2024-03-08T07:00:29;25.20;;;14.10;;
29362;SDS011;16349;53.672;10.014;2024-03-08T07:02:56;24.17;;;12.90;;
29362;SDS011;16349;53.672;10.014;2024-03-08T07:05:26;26.60;;;14.83;;
29362;SDS011;16349;53.672;10.014;2024-03-08T07:07:52;20.63;;;13.67;;
29362;SDS011;16349;53.672;10.014;2024-03-08T07:10:20;23.90;;;13.07;;
29362;SDS011;16349;53.672;10.014;2024-03-08T07:12:49;24.60;;;13.37;;
29362;SDS011;16349;53.672;10.014;2024-03-08T07:15:17;25.43;;;14.10;;
29362;SDS011;16349;53.672;10.014;2024-03-08T07:17:53;22.47;;;13.60;;
29362;SDS011;16349;53.672;10.014;2024-03-08T07:20:20;24.50;;;13.07;;
29362;SDS011;16349;53.672;10.014;2024-03-08T07:22:48;22.63;;;13.87;;
29362;SDS011;16349;53.672;10.014;2024-03-08T07:25:16;23.97;;;13.50;;
29362;SDS011;16349;53.672;10.014;2024-03-08T07:27:47;24.10;;;13.63;;
29362;SDS011;16349;53.672;10.014;2024-03-08T07:30:14;24.37;;;14.13;;
29362;SDS011;16349;53.672;10.014;2024-03-08T07:33:05;27.73;;;14.23;;
29362;SDS011;16349;53.672;10.014;2024-03-08T07:35:32;25.63;;;13.83;;
29362;SDS011;16349;53.672;10.014;2024-03-08T07:38:02;27.07;;;14.50;;
29362;SDS011;16349;53.672;10.014;2024-03-08T07:40:30;23.17;;;13.40;;
29362;SDS011;16349;53.672;10.014;2024-03-08T07:42:57;20.20;;;12.77;;
29362;SDS011;16349;53.672;10.014;2024-03-08T07:45:24;25.17;;;13.80;;
29362;SDS011;16349;53.672;10.014;2024-03-08T07:47:51;29.27;;;14.93;;
29362;SDS011;16349;53.672;10.014;2024-03-08T07:50:19;25.30;;;14.50;;
29362;SDS011;16349;53.672;10.014;2024-03-08T07:52:48;26.47;;;14.37;;
29362;SDS011;16349;53.672;10.014;2024-03-08T07:55:15;25.47;;;13.80;;
29362;SDS011;16349;53.672;10.014;2024-03-08T07:57:42;26.77;;;15.57;;
29362;SDS011;16349;53.672;10.014;2024-03-08T08:00:09;25.60;;;14.07;;
29362;SDS011;16349;53.672;10.014;2024-03-08T08:02:36;24.53;;;14.50;;
29362;SDS011;16349;53.672;10.014;2024-03-08T08:05:02;22.63;;;13.70;;
29362;SDS011;16349;53.672;10.014;2024-03-08T08:07:31;27.33;;;14.83;;
29362;SDS011;16349;53.672;10.014;2024-03-08T08:09:58;26.70;;;14.13;;
29362;SDS011;16349;53.672;10.014;2024-03-08T08:12:25;23.00;;;14.40;;
29362;SDS011;16349;53.672;10.014;2024-03-08T08:14:53;30.20;;;14.67;;
29362;SDS011;16349;53.672;10.014;2024-03-08T08:17:20;27.93;;;14.77;;
29362;SDS011;16349;53.672;10.014;2024-03-08T08:19:47;26.73;;;14.67;;
29362;SDS011;16349;53.672;10.014;2024-03-08T08:22:14;22.90;;;13.80;;
29362;SDS011;16349;53.672;10.014;2024-03-08T08:24:42;25.13;;;15.13;;
29362;SDS011;16349;53.672;10.014;2024-03-08T08:27:09;23.93;;;14.13;;
29362;SDS011;16349;53.672;10.014;2024-03-08T08:29:37;28.27;;;13.97;;
29362;SDS011;16349;53.672;10.014;2024-03-08T08:32:05;23.57;;;13.80;;
29362;SDS011;16349;53.672;10.014;2024-03-08T08:34:32;26.57;;;15.23;;
29362;SDS011;16349;53.672;10.014;2024-03-08T08:36:59;24.10;;;14.37;;
29362;SDS011;16349;53.672;10.014;2024-03-08T08:39:26;22.67;;;14.70;;
29362;SDS011;16349;53.672;10.014;2024-03-08T08:41:54;28.57;;;15.50;;
29362;SDS011;16349;53.672;10.014;2024-03-08T08:44:21;23.77;;;12.97;;
29362;SDS011;16349;53.672;10.014;2024-03-08T08:46:48;24.80;;;14.73;;
29362;SDS011;16349;53.672;10.014;2024-03-08T08:49:15;27.13;;;13.73;;
29362;SDS011;16349;53.672;10.014;2024-03-08T08:51:48;26.07;;;15.47;;
29362;SDS011;16349;53.672;10.014;2024-03-08T08:54:15;23.50;;;13.53;;
29362;SDS011;16349;53.672;10.014;2024-03-08T08:56:42;22.03;;;13.90;;
29362;SDS011;16349;53.672;10.014;2024-03-08T08:59:11;23.30;;;13.97;;
29362;SDS011;16349;53.672;10.014;2024-03-08T09:01:39;23.47;;;14.77;;
29362;SDS011;16349;53.672;10.014;2024-03-08T09:04:05;23.67;;;14.57;;
29362;SDS011;16349;53.672;10.014;2024-03-08T09:06:33;24.20;;;15.17;;
29362;SDS011;16349;53.672;10.014;2024-03-08T09:09:01;24.97;;;14.73;;
29362;SDS011;16349;53.672;10.014;2024-03-08T09:11:29;24.50;;;14.43;;
29362;SDS011;16349;53.672;10.014;2024-03-08T09:13:56;23.40;;;14.57;;
29362;SDS011;16349;53.672;10.014;2024-03-08T09:16:24;25.50;;;14.17;;
29362;SDS011;16349;53.672;10.014;2024-03-08T09:18:51;21.00;;;13.83;;
29362;SDS011;16349;53.672;10.014;2024-03-08T09:21:17;21.97;;;14.03;;
29362;SDS011;16349;53.672;10.014;2024-03-08T09:23:44;25.97;;;14.47;;
29362;SDS011;16349;53.672;10.014;2024-03-08T09:26:12;25.47;;;14.23;;
29362;SDS011;16349;53.672;10.014;2024-03-08T09:28:41;22.13;;;13.47;;
29362;SDS011;16349;53.672;10.014;2024-03-08T09:31:08;22.00;;;14.07;;
29362;SDS011;16349;53.672;10.014;2024-03-08T09:33:37;22.80;;;13.83;;
29362;SDS011;16349;53.672;10.014;2024-03-08T09:36:05;24.37;;;14.67;;
29362;SDS011;16349;53.672;10.014;2024-03-08T09:38:33;24.83;;;14.40;;
29362;SDS011;16349;53.672;10.014;2024-03-08T09:41:00;24.30;;;14.20;;
29362;SDS011;16349;53.672;10.014;2024-03-08T09:43:30;23.03;;;13.97;;
29362;SDS011;16349;53.672;10.014;2024-03-08T09:45:57;25.53;;;14.30;;
29362;SDS011;16349;53.672;10.014;2024-03-08T09:48:24;19.63;;;12.87;;
29362;SDS011;16349;53.672;10.014;2024-03-08T09:50:53;22.87;;;13.97;;
29362;SDS011;16349;53.672;10.014;2024-03-08T09:53:21;26.20;;;14.77;;
29362;SDS011;16349;53.672;10.014;2024-03-08T09:55:49;21.77;;;14.23;;
29362;SDS011;16349;53.672;10.014;2024-03-08T09:58:17;22.40;;;14.30;;
29362;SDS011;16349;53.672;10.014;2024-03-08T10:01:16;22.83;;;14.33;;
29362;SDS011;16349;53.672;10.014;2024-03-08T10:03:43;22.53;;;13.93;;
29362;SDS011;16349;53.672;10.014;2024-03-08T10:06:14;22.90;;;13.70;;
29362;SDS011;16349;53.672;10.014;2024-03-08T10:08:41;22.07;;;14.00;;
29362;SDS011;16349;53.672;10.014;2024-03-08T10:11:08;20.33;;;13.20;;
29362;SDS011;16349;53.672;10.014;2024-03-08T10:13:36;19.73;;;13.93;;
29362;SDS011;16349;53.672;10.014;2024-03-08T10:16:05;25.13;;;13.73;;
29362;SDS011;16349;53.672;10.014;2024-03-08T10:18:32;20.33;;;13.87;;
29362;SDS011;16349;53.672;10.014;2024-03-08T10:21:03;19.03;;;12.63;;
29362;SDS011;16349;53.672;10.014;2024-03-08T10:23:32;23.43;;;13.97;;
29362;SDS011;16349;53.672;10.014;2024-03-08T10:26:11;21.43;;;13.73;;
29362;SDS011;16349;53.672;10.014;2024-03-08T10:28:41;21.37;;;14.07;;
29362;SDS011;16349;53.672;10.014;2024-03-08T10:31:08;20.57;;;13.43;;
29362;SDS011;16349;53.672;10.014;2024-03-08T10:33:35;18.97;;;12.67;;
29362;SDS011;16349;53.672;10.014;2024-03-08T10:36:05;22.73;;;13.07;;
29362;SDS011;16349;53.672;10.014;2024-03-08T10:38:36;21.83;;;13.83;;
29362;SDS011;16349;53.672;10.014;2024-03-08T10:41:05;16.73;;;12.30;;
29362;SDS011;16349;53.672;10.014;2024-03-08T10:43:36;18.40;;;11.83;;
29362;SDS011;16349;53.672;10.014;2024-03-08T10:46:21;18.53;;;12.77;;
29362;SDS011;16349;53.672;10.014;2024-03-08T10:48:57;20.20;;;12.70;;
29362;SDS011;16349;53.672;10.014;2024-03-08T10:51:28;22.07;;;12.60;;
29362;SDS011;16349;53.672;10.014;2024-03-08T10:53:59;19.77;;;12.53;;
29362;SDS011;16349;53.672;10.014;2024-03-08T10:56:28;18.37;;;12.80;;
29362;SDS011;16349;53.672;10.014;2024-03-08T10:58:55;19.60;;;12.40;;
29362;SDS011;16349;53.672;10.014;2024-03-08T11:01:22;17.23;;;11.73;;
29362;SDS011;16349;53.672;10.014;2024-03-08T11:03:51;18.90;;;12.40;;
29362;SDS011;16349;53.672;10.014;2024-03-08T11:06:22;20.03;;;12.03;;
29362;SDS011;16349;53.672;10.014;2024-03-08T11:08:59;17.70;;;12.50;;
29362;SDS011;16349;53.672;10.014;2024-03-08T11:11:27;18.07;;;12.00;;
29362;SDS011;16349;53.672;10.014;2024-03-08T11:13:56;18.80;;;11.67;;
29362;SDS011;16349;53.672;10.014;2024-03-08T11:16:36;20.27;;;12.17;;
29362;SDS011;16349;53.672;10.014;2024-03-08T11:19:06;18.47;;;12.27;;
29362;SDS011;16349;53.672;10.014;2024-03-08T11:21:54;17.80;;;11.70;;
29362;SDS011;16349;53.672;10.014;2024-03-08T11:24:25;16.43;;;11.73;;
29362;SDS011;16349;53.672;10.014;2024-03-08T11:26:54;15.10;;;10.97;;
29362;SDS011;16349;53.672;10.014;2024-03-08T11:29:34;23.83;;;12.77;;
29362;SDS011;16349;53.672;10.014;2024-03-08T11:32:08;16.57;;;11.17;;
29362;SDS011;16349;53.672;10.014;2024-03-08T11:34:37;22.00;;;12.37;;
29362;SDS011;16349;53.672;10.014;2024-03-08T11:37:05;18.27;;;11.47;;
29362;SDS011;16349;53.672;10.014;2024-03-08T11:39:39;20.43;;;13.20;;
29362;SDS011;16349;53.672;10.014;2024-03-08T11:42:06;20.07;;;11.93;;
29362;SDS011;16349;53.672;10.014;2024-03-08T11:44:35;19.07;;;11.80;;
29362;SDS011;16349;53.672;10.014;2024-03-08T11:47:02;19.13;;;12.33;;
29362;SDS011;16349;53.672;10.014;2024-03-08T11:49:34;17.87;;;11.40;;
29362;SDS011;16349;53.672;10.014;2024-03-08T11:52:01;14.63;;;10.73;;
29362;SDS011;16349;53.672;10.014;2024-03-08T11:54:28;13.67;;;9.83;;
29362;SDS011;16349;53.672;10.014;2024-03-08T11:56:57;17.60;;;10.90;;
29362;SDS011;16349;53.672;10.014;2024-03-08T11:59:26;15.37;;;9.70;;
29362;SDS011;16349;53.672;10.014;2024-03-08T12:01:58;17.87;;;11.83;;
29362;SDS011;16349;53.672;10.014;2024-03-08T12:04:27;16.63;;;10.63;;
29362;SDS011;16349;53.672;10.014;2024-03-08T12:06:53;18.87;;;10.63;;
29362;SDS011;16349;53.672;10.014;2024-03-08T12:09:21;13.47;;;8.87;;
29362;SDS011;16349;53.672;10.014;2024-03-08T12:11:47;15.83;;;9.87;;
29362;SDS011;16349;53.672;10.014;2024-03-08T12:14:17;16.93;;;10.00;;
29362;SDS011;16349;53.672;10.014;2024-03-08T12:16:44;17.23;;;10.43;;
29362;SDS011;16349;53.672;10.014;2024-03-08T12:19:11;13.93;;;10.57;;
29362;SDS011;16349;53.672;10.014;2024-03-08T12:21:38;16.50;;;10.07;;
29362;SDS011;16349;53.672;10.014;2024-03-08T12:24:14;18.77;;;11.57;;
29362;SDS011;16349;53.672;10.014;2024-03-08T12:26:45;17.90;;;11.87;;
29362;SDS011;16349;53.672;10.014;2024-03-08T12:29:18;16.53;;;10.90;;
29362;SDS011;16349;53.672;10.014;2024-03-08T12:31:48;15.10;;;9.53;;
29362;SDS011;16349;53.672;10.014;2024-03-08T12:34:17;16.30;;;11.37;;
29362;SDS011;16349;53.672;10.014;2024-03-08T12:36:44;16.73;;;11.07;;
29362;SDS011;16349;53.672;10.014;2024-03-08T12:39:13;16.67;;;11.37;;
29362;SDS011;16349;53.672;10.014;2024-03-08T12:41:43;17.20;;;11.30;;
29362;SDS011;16349;53.672;10.014;2024-03-08T12:44:11;16.23;;;11.77;;
29362;SDS011;16349;53.672;10.014;2024-03-08T12:46:40;17.37;;;10.87;;
29362;SDS011;16349;53.672;10.014;2024-03-08T12:49:10;15.20;;;10.53;;
29362;SDS011;16349;53.672;10.014;2024-03-08T12:51:37;15.63;;;10.97;;
29362;SDS011;16349;53.672;10.014;2024-03-08T12:54:05;18.00;;;11.67;;
29362;SDS011;16349;53.672;10.014;2024-03-08T12:56:33;16.73;;;10.77;;
29362;SDS011;16349;53.672;10.014;2024-03-08T12:59:03;16.80;;;10.53;;
29362;SDS011;16349;53.672;10.014;2024-03-08T13:01:31;16.33;;;10.27;;
29362;SDS011;16349;53.672;10.014;2024-03-08T13:03:59;16.50;;;10.97;;
29362;SDS011;16349;53.672;10.014;2024-03-08T13:06:27;16.13;;;10.80;;
29362;SDS011;16349;53.672;10.014;2024-03-08T13:08:53;16.27;;;11.40;;
29362;SDS011;16349;53.672;10.014;2024-03-08T13:11:21;14.67;;;10.77;;
29362;SDS011;16349;53.672;10.014;2024-03-08T13:13:49;19.20;;;11.40;;
29362;SDS011;16349;53.672;10.014;2024-03-08T13:16:17;15.40;;;10.70;;
29362;SDS011;16349;53.672;10.014;2024-03-08T13:18:44;15.20;;;10.97;;
29362;SDS011;16349;53.672;10.014;2024-03-08T13:21:15;16.47;;;10.63;;
29362;SDS011;16349;53.672;10.014;2024-03-08T13:23:45;16.07;;;10.90;;
29362;SDS011;16349;53.672;10.014;2024-03-08T13:26:14;16.47;;;10.37;;
29362;SDS011;16349;53.672;10.014;2024-03-08T13:28:43;15.27;;;10.13;;
29362;SDS011;16349;53.672;10.014;2024-03-08T13:31:12;14.37;;;9.97;;
29362;SDS011;16349;53.672;10.014;2024-03-08T13:33:40;15.10;;;9.83;;
29362;SDS011;16349;53.672;10.014;2024-03-08T13:36:07;14.27;;;9.57;;
29362;SDS011;16349;53.672;10.014;2024-03-08T13:38:41;12.57;;;9.43;;
29362;SDS011;16349;53.672;10.014;2024-03-08T13:41:09;13.80;;;10.07;;
29362;SDS011;16349;53.672;10.014;2024-03-08T13:43:38;14.63;;;10.07;;
29362;SDS011;16349;53.672;10.014;2024-03-08T13:46:05;14.20;;;9.83;;
29362;SDS011;16349;53.672;10.014;2024-03-08T13:48:33;13.53;;;9.60;;
29362;SDS011;16349;53.672;10.014;2024-03-08T13:51:00;13.73;;;9.43;;
29362;SDS011;16349;53.672;10.014;2024-03-08T13:53:26;14.07;;;10.57;;
29362;SDS011;16349;53.672;10.014;2024-03-08T13:55:54;13.97;;;10.27;;
29362;SDS011;16349;53.672;10.014;2024-03-08T13:58:21;13.67;;;10.00;;
29362;SDS011;16349;53.672;10.014;2024-03-08T14:00:49;14.47;;;10.13;;
29362;SDS011;16349;53.672;10.014;2024-03-08T14:03:16;14.57;;;11.10;;
29362;SDS011;16349;53.672;10.014;2024-03-08T14:05:43;14.67;;;10.10;;
29362;SDS011;16349;53.672;10.014;2024-03-08T14:08:11;15.77;;;10.37;;
29362;SDS011;16349;53.672;10.014;2024-03-08T14:10:39;16.67;;;10.77;;
29362;SDS011;16349;53.672;10.014;2024-03-08T14:13:08;15.50;;;9.80;;
29362;SDS011;16349;53.672;10.014;2024-03-08T14:15:36;12.43;;;10.00;;
29362;SDS011;16349;53.672;10.014;2024-03-08T14:18:07;17.23;;;10.63;;